Terminal Aerodrome Forecast
Issued by NWS

Home | Current Version | Previous Version | Graphics & Text | Print | Product List | Glossary On
Versions: 1 2 3 4 5 6 7 8 9 10 11 12 13 14 15
000
FTUS43 KBIS 301315 AAA
TAFMOT
TAF AMD
KMOT 301315Z 3013/0112 11008KT 3SM FU OVC100
      TEMPO 3013/3017 6SM -SHRA FU BKN050 OVC100
     FM301700 13007KT P6SM BKN050 OVC080
     FM302300 09008KT P6SM -SHRA VCTS BKN050 OVC080CB
     FM010400 06005KT P6SM VCSH BKN035 OVC100=

USA.gov is the U.S. government's official web portal to all federal, state and local government web resources and services.